sensor_id;sensor_type;location;lat;lon;timestamp;P1;durP1;ratioP1;P2;durP2;ratioP2
37529;SDS011;23374;52.758;6.872;2023-02-04T00:00:13;16.77;;;3.00;;
37529;SDS011;23374;52.758;6.872;2023-02-04T00:02:36;13.03;;;2.73;;
37529;SDS011;23374;52.758;6.872;2023-02-04T00:04:57;14.00;;;2.57;;
37529;SDS011;23374;52.758;6.872;2023-02-04T00:07:19;13.53;;;2.53;;
37529;SDS011;23374;52.758;6.872;2023-02-04T00:09:39;10.13;;;2.10;;
37529;SDS011;23374;52.758;6.872;2023-02-04T00:12:00;23.47;;;2.87;;
37529;SDS011;23374;52.758;6.872;2023-02-04T00:14:20;17.37;;;2.43;;
37529;SDS011;23374;52.758;6.872;2023-02-04T00:16:40;16.13;;;2.80;;
37529;SDS011;23374;52.758;6.872;2023-02-04T00:19:00;35.00;;;3.57;;
37529;SDS011;23374;52.758;6.872;2023-02-04T00:21:21;13.87;;;1.93;;
37529;SDS011;23374;52.758;6.872;2023-02-04T00:23:42;10.73;;;1.93;;
37529;SDS011;23374;52.758;6.872;2023-02-04T00:26:02;18.10;;;2.87;;
37529;SDS011;23374;52.758;6.872;2023-02-04T00:28:23;22.87;;;2.83;;
37529;SDS011;23374;52.758;6.872;2023-02-04T00:30:43;17.57;;;2.73;;
37529;SDS011;23374;52.758;6.872;2023-02-04T00:33:04;14.10;;;1.90;;
37529;SDS011;23374;52.758;6.872;2023-02-04T00:35:24;19.90;;;2.57;;
37529;SDS011;23374;52.758;6.872;2023-02-04T00:37:44;21.37;;;2.33;;
37529;SDS011;23374;52.758;6.872;2023-02-04T00:40:06;9.17;;;2.20;;
37529;SDS011;23374;52.758;6.872;2023-02-04T00:42:27;17.30;;;2.87;;
37529;SDS011;23374;52.758;6.872;2023-02-04T00:44:47;27.13;;;2.97;;
37529;SDS011;23374;52.758;6.872;2023-02-04T00:47:08;17.57;;;3.63;;
37529;SDS011;23374;52.758;6.872;2023-02-04T00:49:28;13.40;;;2.73;;
37529;SDS011;23374;52.758;6.872;2023-02-04T00:51:49;26.70;;;2.57;;
37529;SDS011;23374;52.758;6.872;2023-02-04T00:54:09;15.97;;;2.60;;
37529;SDS011;23374;52.758;6.872;2023-02-04T00:56:29;21.80;;;2.87;;
37529;SDS011;23374;52.758;6.872;2023-02-04T00:58:50;14.80;;;2.40;;
37529;SDS011;23374;52.758;6.872;2023-02-04T01:01:10;19.83;;;3.00;;
37529;SDS011;23374;52.758;6.872;2023-02-04T01:03:30;18.70;;;2.47;;
37529;SDS011;23374;52.758;6.872;2023-02-04T01:05:50;16.57;;;2.60;;
37529;SDS011;23374;52.758;6.872;2023-02-04T01:08:10;15.83;;;2.30;;
37529;SDS011;23374;52.758;6.872;2023-02-04T01:10:30;15.53;;;2.60;;
37529;SDS011;23374;52.758;6.872;2023-02-04T01:12:51;21.03;;;3.27;;
37529;SDS011;23374;52.758;6.872;2023-02-04T01:15:11;12.00;;;2.33;;
37529;SDS011;23374;52.758;6.872;2023-02-04T01:17:32;19.20;;;3.17;;
37529;SDS011;23374;52.758;6.872;2023-02-04T01:19:53;12.60;;;2.60;;
37529;SDS011;23374;52.758;6.872;2023-02-04T01:22:13;21.23;;;3.20;;
37529;SDS011;23374;52.758;6.872;2023-02-04T01:24:33;9.67;;;2.40;;
37529;SDS011;23374;52.758;6.872;2023-02-04T01:26:54;6.67;;;2.27;;
37529;SDS011;23374;52.758;6.872;2023-02-04T01:29:14;13.37;;;2.67;;
37529;SDS011;23374;52.758;6.872;2023-02-04T01:31:34;22.23;;;3.00;;
37529;SDS011;23374;52.758;6.872;2023-02-04T01:33:55;17.97;;;2.60;;
37529;SDS011;23374;52.758;6.872;2023-02-04T01:36:16;15.60;;;2.47;;
37529;SDS011;23374;52.758;6.872;2023-02-04T01:38:40;16.50;;;2.70;;
37529;SDS011;23374;52.758;6.872;2023-02-04T01:41:00;16.27;;;2.07;;
37529;SDS011;23374;52.758;6.872;2023-02-04T01:43:22;17.67;;;2.57;;
37529;SDS011;23374;52.758;6.872;2023-02-04T01:47:28;15.70;;;2.27;;
37529;SDS011;23374;52.758;6.872;2023-02-04T01:49:50;15.90;;;3.00;;
37529;SDS011;23374;52.758;6.872;2023-02-04T01:52:13;17.07;;;2.80;;
37529;SDS011;23374;52.758;6.872;2023-02-04T01:54:34;16.87;;;3.13;;
37529;SDS011;23374;52.758;6.872;2023-02-04T01:56:55;17.13;;;2.87;;
37529;SDS011;23374;52.758;6.872;2023-02-04T01:59:16;15.17;;;2.63;;
37529;SDS011;23374;52.758;6.872;2023-02-04T02:01:43;15.13;;;2.83;;
37529;SDS011;23374;52.758;6.872;2023-02-04T02:04:16;16.97;;;2.87;;
37529;SDS011;23374;52.758;6.872;2023-02-04T02:06:41;14.43;;;2.23;;
37529;SDS011;23374;52.758;6.872;2023-02-04T02:09:05;11.57;;;2.17;;
37529;SDS011;23374;52.758;6.872;2023-02-04T02:11:26;15.47;;;2.77;;
37529;SDS011;23374;52.758;6.872;2023-02-04T02:13:47;17.83;;;3.20;;
37529;SDS011;23374;52.758;6.872;2023-02-04T02:16:07;14.07;;;2.87;;
37529;SDS011;23374;52.758;6.872;2023-02-04T02:18:28;28.27;;;3.30;;
37529;SDS011;23374;52.758;6.872;2023-02-04T02:20:48;17.07;;;2.70;;
37529;SDS011;23374;52.758;6.872;2023-02-04T02:23:41;11.63;;;2.53;;
37529;SDS011;23374;52.758;6.872;2023-02-04T02:26:09;17.90;;;2.83;;
37529;SDS011;23374;52.758;6.872;2023-02-04T02:28:29;15.43;;;2.70;;
37529;SDS011;23374;52.758;6.872;2023-02-04T02:30:50;21.30;;;2.40;;
37529;SDS011;23374;52.758;6.872;2023-02-04T02:33:15;15.43;;;2.50;;
37529;SDS011;23374;52.758;6.872;2023-02-04T02:35:37;18.60;;;2.73;;
37529;SDS011;23374;52.758;6.872;2023-02-04T02:37:57;27.83;;;2.60;;
37529;SDS011;23374;52.758;6.872;2023-02-04T02:40:18;17.43;;;3.73;;
37529;SDS011;23374;52.758;6.872;2023-02-04T02:42:38;12.23;;;2.40;;
37529;SDS011;23374;52.758;6.872;2023-02-04T02:45:03;18.63;;;2.57;;
37529;SDS011;23374;52.758;6.872;2023-02-04T02:47:33;19.60;;;2.80;;
37529;SDS011;23374;52.758;6.872;2023-02-04T02:49:53;21.90;;;2.63;;
37529;SDS011;23374;52.758;6.872;2023-02-04T02:52:14;21.83;;;2.83;;
37529;SDS011;23374;52.758;6.872;2023-02-04T02:54:34;30.87;;;2.83;;
37529;SDS011;23374;52.758;6.872;2023-02-04T02:56:55;18.63;;;2.50;;
37529;SDS011;23374;52.758;6.872;2023-02-04T02:59:17;20.43;;;2.50;;
37529;SDS011;23374;52.758;6.872;2023-02-04T03:01:38;20.83;;;3.37;;
37529;SDS011;23374;52.758;6.872;2023-02-04T03:03:58;21.50;;;3.53;;
37529;SDS011;23374;52.758;6.872;2023-02-04T03:06:21;22.70;;;2.60;;
37529;SDS011;23374;52.758;6.872;2023-02-04T03:08:44;26.17;;;3.30;;
37529;SDS011;23374;52.758;6.872;2023-02-04T03:11:05;21.80;;;3.20;;
37529;SDS011;23374;52.758;6.872;2023-02-04T03:13:25;26.83;;;2.97;;
37529;SDS011;23374;52.758;6.872;2023-02-04T03:15:46;16.03;;;3.00;;
37529;SDS011;23374;52.758;6.872;2023-02-04T03:18:07;16.63;;;2.90;;
37529;SDS011;23374;52.758;6.872;2023-02-04T03:20:29;28.00;;;3.67;;
37529;SDS011;23374;52.758;6.872;2023-02-04T03:22:51;16.37;;;3.10;;
37529;SDS011;23374;52.758;6.872;2023-02-04T03:25:12;21.63;;;3.17;;
37529;SDS011;23374;52.758;6.872;2023-02-04T03:27:33;16.23;;;3.33;;
37529;SDS011;23374;52.758;6.872;2023-02-04T03:29:53;20.20;;;3.27;;
37529;SDS011;23374;52.758;6.872;2023-02-04T03:32:13;21.57;;;3.33;;
37529;SDS011;23374;52.758;6.872;2023-02-04T03:34:33;17.57;;;2.70;;
37529;SDS011;23374;52.758;6.872;2023-02-04T03:36:54;13.90;;;3.13;;
37529;SDS011;23374;52.758;6.872;2023-02-04T03:39:15;21.57;;;3.20;;
37529;SDS011;23374;52.758;6.872;2023-02-04T03:41:35;23.27;;;3.03;;
37529;SDS011;23374;52.758;6.872;2023-02-04T03:43:55;16.53;;;3.17;;
37529;SDS011;23374;52.758;6.872;2023-02-04T03:47:38;22.00;;;3.20;;
37529;SDS011;23374;52.758;6.872;2023-02-04T03:49:58;16.10;;;3.67;;
37529;SDS011;23374;52.758;6.872;2023-02-04T03:52:18;21.17;;;3.03;;
37529;SDS011;23374;52.758;6.872;2023-02-04T03:54:39;13.03;;;2.83;;
37529;SDS011;23374;52.758;6.872;2023-02-04T03:56:59;19.20;;;3.40;;
37529;SDS011;23374;52.758;6.872;2023-02-04T03:59:19;19.57;;;2.67;;
37529;SDS011;23374;52.758;6.872;2023-02-04T04:01:39;18.83;;;2.60;;
37529;SDS011;23374;52.758;6.872;2023-02-04T04:03:59;28.40;;;3.53;;
37529;SDS011;23374;52.758;6.872;2023-02-04T04:06:20;17.87;;;3.10;;
37529;SDS011;23374;52.758;6.872;2023-02-04T04:08:40;15.50;;;2.93;;
37529;SDS011;23374;52.758;6.872;2023-02-04T04:11:01;15.97;;;2.83;;
37529;SDS011;23374;52.758;6.872;2023-02-04T04:13:21;22.37;;;2.73;;
37529;SDS011;23374;52.758;6.872;2023-02-04T04:15:42;20.67;;;2.73;;
37529;SDS011;23374;52.758;6.872;2023-02-04T04:18:02;20.20;;;2.90;;
37529;SDS011;23374;52.758;6.872;2023-02-04T04:20:23;11.80;;;2.27;;
37529;SDS011;23374;52.758;6.872;2023-02-04T04:22:44;17.23;;;2.97;;
37529;SDS011;23374;52.758;6.872;2023-02-04T04:25:05;12.03;;;2.80;;
37529;SDS011;23374;52.758;6.872;2023-02-04T04:27:26;15.93;;;2.53;;
37529;SDS011;23374;52.758;6.872;2023-02-04T04:29:47;23.33;;;2.77;;
37529;SDS011;23374;52.758;6.872;2023-02-04T04:32:07;19.17;;;2.60;;
37529;SDS011;23374;52.758;6.872;2023-02-04T04:34:28;18.67;;;3.03;;
37529;SDS011;23374;52.758;6.872;2023-02-04T04:36:48;20.57;;;3.10;;
37529;SDS011;23374;52.758;6.872;2023-02-04T04:39:08;18.57;;;3.67;;
37529;SDS011;23374;52.758;6.872;2023-02-04T04:41:28;17.67;;;2.50;;
37529;SDS011;23374;52.758;6.872;2023-02-04T04:43:49;26.77;;;3.23;;
37529;SDS011;23374;52.758;6.872;2023-02-04T04:47:43;20.77;;;2.30;;
37529;SDS011;23374;52.758;6.872;2023-02-04T04:50:04;13.27;;;2.43;;
37529;SDS011;23374;52.758;6.872;2023-02-04T04:52:24;23.13;;;2.90;;
37529;SDS011;23374;52.758;6.872;2023-02-04T04:54:44;14.00;;;2.60;;
37529;SDS011;23374;52.758;6.872;2023-02-04T04:57:05;23.87;;;3.20;;
37529;SDS011;23374;52.758;6.872;2023-02-04T04:59:25;21.07;;;3.07;;
37529;SDS011;23374;52.758;6.872;2023-02-04T05:01:45;20.53;;;3.07;;
37529;SDS011;23374;52.758;6.872;2023-02-04T05:04:06;21.20;;;3.13;;
37529;SDS011;23374;52.758;6.872;2023-02-04T05:06:26;25.90;;;3.83;;
37529;SDS011;23374;52.758;6.872;2023-02-04T05:08:47;19.77;;;2.83;;
37529;SDS011;23374;52.758;6.872;2023-02-04T05:11:07;17.90;;;2.80;;
37529;SDS011;23374;52.758;6.872;2023-02-04T05:13:27;14.87;;;2.70;;
37529;SDS011;23374;52.758;6.872;2023-02-04T05:15:48;22.73;;;3.20;;
37529;SDS011;23374;52.758;6.872;2023-02-04T05:18:08;18.47;;;2.73;;
37529;SDS011;23374;52.758;6.872;2023-02-04T05:20:28;21.53;;;2.70;;
37529;SDS011;23374;52.758;6.872;2023-02-04T05:22:48;25.07;;;2.83;;
37529;SDS011;23374;52.758;6.872;2023-02-04T05:25:09;22.23;;;3.17;;
37529;SDS011;23374;52.758;6.872;2023-02-04T05:27:29;14.97;;;2.53;;
37529;SDS011;23374;52.758;6.872;2023-02-04T05:29:49;11.37;;;2.73;;
37529;SDS011;23374;52.758;6.872;2023-02-04T05:32:10;20.83;;;2.90;;
37529;SDS011;23374;52.758;6.872;2023-02-04T05:34:30;16.50;;;2.63;;
37529;SDS011;23374;52.758;6.872;2023-02-04T05:36:51;13.17;;;2.53;;
37529;SDS011;23374;52.758;6.872;2023-02-04T05:39:11;24.83;;;3.10;;
37529;SDS011;23374;52.758;6.872;2023-02-04T05:41:31;25.63;;;2.77;;
37529;SDS011;23374;52.758;6.872;2023-02-04T05:43:51;21.33;;;2.47;;
37529;SDS011;23374;52.758;6.872;2023-02-04T05:47:48;17.30;;;3.40;;
37529;SDS011;23374;52.758;6.872;2023-02-04T05:50:08;24.77;;;2.93;;
37529;SDS011;23374;52.758;6.872;2023-02-04T05:52:29;20.10;;;2.60;;
37529;SDS011;23374;52.758;6.872;2023-02-04T05:54:49;17.20;;;2.73;;
37529;SDS011;23374;52.758;6.872;2023-02-04T05:57:09;16.43;;;2.50;;
37529;SDS011;23374;52.758;6.872;2023-02-04T05:59:29;23.40;;;2.70;;
37529;SDS011;23374;52.758;6.872;2023-02-04T06:01:50;12.23;;;3.03;;
37529;SDS011;23374;52.758;6.872;2023-02-04T06:04:10;13.40;;;2.40;;
37529;SDS011;23374;52.758;6.872;2023-02-04T06:06:30;16.33;;;2.60;;
37529;SDS011;23374;52.758;6.872;2023-02-04T06:08:50;17.33;;;2.53;;
37529;SDS011;23374;52.758;6.872;2023-02-04T06:11:11;11.30;;;1.73;;
37529;SDS011;23374;52.758;6.872;2023-02-04T06:13:31;11.50;;;2.70;;
37529;SDS011;23374;52.758;6.872;2023-02-04T06:15:51;24.90;;;3.13;;
37529;SDS011;23374;52.758;6.872;2023-02-04T06:18:11;22.37;;;3.27;;
37529;SDS011;23374;52.758;6.872;2023-02-04T06:20:32;22.63;;;2.57;;
37529;SDS011;23374;52.758;6.872;2023-02-04T06:22:52;21.47;;;2.37;;
37529;SDS011;23374;52.758;6.872;2023-02-04T06:25:13;20.60;;;3.23;;
37529;SDS011;23374;52.758;6.872;2023-02-04T06:27:33;24.83;;;3.17;;
37529;SDS011;23374;52.758;6.872;2023-02-04T06:29:53;7.70;;;1.67;;
37529;SDS011;23374;52.758;6.872;2023-02-04T06:32:14;14.73;;;2.47;;
37529;SDS011;23374;52.758;6.872;2023-02-04T06:34:34;16.97;;;2.47;;
37529;SDS011;23374;52.758;6.872;2023-02-04T06:36:54;10.10;;;2.00;;
37529;SDS011;23374;52.758;6.872;2023-02-04T06:39:14;16.23;;;2.80;;
37529;SDS011;23374;52.758;6.872;2023-02-04T06:41:35;18.23;;;2.37;;
37529;SDS011;23374;52.758;6.872;2023-02-04T06:43:55;21.97;;;2.83;;
37529;SDS011;23374;52.758;6.872;2023-02-04T06:46:15;14.93;;;2.47;;
37529;SDS011;23374;52.758;6.872;2023-02-04T06:48:36;15.23;;;1.90;;
37529;SDS011;23374;52.758;6.872;2023-02-04T06:50:56;8.93;;;1.93;;
37529;SDS011;23374;52.758;6.872;2023-02-04T06:53:16;15.23;;;1.80;;
37529;SDS011;23374;52.758;6.872;2023-02-04T06:55:36;15.60;;;1.53;;
37529;SDS011;23374;52.758;6.872;2023-02-04T06:57:57;7.47;;;1.33;;
37529;SDS011;23374;52.758;6.872;2023-02-04T07:00:18;7.50;;;2.10;;
37529;SDS011;23374;52.758;6.872;2023-02-04T07:02:39;9.77;;;1.30;;
37529;SDS011;23374;52.758;6.872;2023-02-04T07:05:01;6.77;;;1.80;;
37529;SDS011;23374;52.758;6.872;2023-02-04T07:07:22;10.23;;;1.70;;
37529;SDS011;23374;52.758;6.872;2023-02-04T07:09:42;7.77;;;1.30;;
37529;SDS011;23374;52.758;6.872;2023-02-04T07:12:02;8.40;;;1.23;;
37529;SDS011;23374;52.758;6.872;2023-02-04T07:14:23;8.73;;;1.40;;
37529;SDS011;23374;52.758;6.872;2023-02-04T07:16:43;6.20;;;1.17;;
37529;SDS011;23374;52.758;6.872;2023-02-04T07:19:03;7.53;;;1.07;;
37529;SDS011;23374;52.758;6.872;2023-02-04T07:21:24;6.73;;;0.80;;
37529;SDS011;23374;52.758;6.872;2023-02-04T07:23:45;5.17;;;1.27;;
37529;SDS011;23374;52.758;6.872;2023-02-04T07:26:05;4.97;;;0.93;;
37529;SDS011;23374;52.758;6.872;2023-02-04T07:28:25;6.27;;;1.00;;
37529;SDS011;23374;52.758;6.872;2023-02-04T07:30:46;5.13;;;1.00;;
37529;SDS011;23374;52.758;6.872;2023-02-04T07:33:07;10.63;;;1.00;;
37529;SDS011;23374;52.758;6.872;2023-02-04T07:35:27;6.03;;;1.10;;
37529;SDS011;23374;52.758;6.872;2023-02-04T07:37:47;2.90;;;0.57;;
37529;SDS011;23374;52.758;6.872;2023-02-04T07:40:10;6.83;;;1.30;;
37529;SDS011;23374;52.758;6.872;2023-02-04T07:42:31;5.37;;;1.07;;
37529;SDS011;23374;52.758;6.872;2023-02-04T07:44:51;7.80;;;0.83;;
37529;SDS011;23374;52.758;6.872;2023-02-04T07:47:12;6.93;;;1.40;;
37529;SDS011;23374;52.758;6.872;2023-02-04T07:49:33;4.53;;;1.00;;
37529;SDS011;23374;52.758;6.872;2023-02-04T07:51:53;6.17;;;1.27;;
37529;SDS011;23374;52.758;6.872;2023-02-04T07:54:13;5.03;;;0.70;;
37529;SDS011;23374;52.758;6.872;2023-02-04T07:56:34;4.73;;;0.73;;
37529;SDS011;23374;52.758;6.872;2023-02-04T07:58:54;4.77;;;1.53;;
37529;SDS011;23374;52.758;6.872;2023-02-04T08:01:15;5.50;;;0.80;;
37529;SDS011;23374;52.758;6.872;2023-02-04T08:03:35;7.53;;;1.30;;
37529;SDS011;23374;52.758;6.872;2023-02-04T08:05:55;5.30;;;1.20;;
37529;SDS011;23374;52.758;6.872;2023-02-04T08:08:15;5.33;;;1.00;;
37529;SDS011;23374;52.758;6.872;2023-02-04T08:10:36;4.37;;;0.83;;
37529;SDS011;23374;52.758;6.872;2023-02-04T08:12:56;9.00;;;1.17;;
37529;SDS011;23374;52.758;6.872;2023-02-04T08:15:16;7.17;;;0.80;;
37529;SDS011;23374;52.758;6.872;2023-02-04T08:17:37;6.87;;;0.93;;
37529;SDS011;23374;52.758;6.872;2023-02-04T08:19:57;10.50;;;1.10;;
37529;SDS011;23374;52.758;6.872;2023-02-04T08:22:18;3.00;;;0.77;;
37529;SDS011;23374;52.758;6.872;2023-02-04T08:24:38;3.20;;;0.73;;
37529;SDS011;23374;52.758;6.872;2023-02-04T08:26:59;2.90;;;1.17;;
37529;SDS011;23374;52.758;6.872;2023-02-04T08:29:19;7.37;;;1.30;;
37529;SDS011;23374;52.758;6.872;2023-02-04T08:31:39;6.53;;;1.03;;
37529;SDS011;23374;52.758;6.872;2023-02-04T08:34:00;7.50;;;1.17;;
37529;SDS011;23374;52.758;6.872;2023-02-04T08:36:20;2.33;;;0.73;;
37529;SDS011;23374;52.758;6.872;2023-02-04T08:38:41;5.30;;;1.00;;
37529;SDS011;23374;52.758;6.872;2023-02-04T08:41:03;7.87;;;1.30;;
37529;SDS011;23374;52.758;6.872;2023-02-04T08:43:23;7.40;;;1.23;;
37529;SDS011;23374;52.758;6.872;2023-02-04T08:45:44;7.97;;;1.27;;
37529;SDS011;23374;52.758;6.872;2023-02-04T08:48:04;3.97;;;0.87;;
37529;SDS011;23374;52.758;6.872;2023-02-04T08:50:26;5.27;;;1.20;;
37529;SDS011;23374;52.758;6.872;2023-02-04T08:52:47;2.60;;;1.10;;
37529;SDS011;23374;52.758;6.872;2023-02-04T08:55:07;3.77;;;1.13;;
37529;SDS011;23374;52.758;6.872;2023-02-04T08:57:28;3.57;;;0.90;;
37529;SDS011;23374;52.758;6.872;2023-02-04T08:59:48;3.87;;;0.90;;
37529;SDS011;23374;52.758;6.872;2023-02-04T09:02:09;3.23;;;0.73;;
37529;SDS011;23374;52.758;6.872;2023-02-04T09:04:29;4.27;;;0.90;;
37529;SDS011;23374;52.758;6.872;2023-02-04T09:06:49;7.20;;;1.07;;
37529;SDS011;23374;52.758;6.872;2023-02-04T09:09:10;6.40;;;0.87;;
37529;SDS011;23374;52.758;6.872;2023-02-04T09:11:31;7.83;;;1.10;;
37529;SDS011;23374;52.758;6.872;2023-02-04T09:13:51;4.07;;;1.07;;
37529;SDS011;23374;52.758;6.872;2023-02-04T09:16:14;3.50;;;0.97;;
37529;SDS011;23374;52.758;6.872;2023-02-04T09:18:36;2.17;;;1.03;;
37529;SDS011;23374;52.758;6.872;2023-02-04T09:20:56;3.63;;;0.93;;
37529;SDS011;23374;52.758;6.872;2023-02-04T09:23:17;4.20;;;1.03;;
37529;SDS011;23374;52.758;6.872;2023-02-04T09:25:38;5.07;;;0.93;;
37529;SDS011;23374;52.758;6.872;2023-02-04T09:28:02;9.83;;;1.30;;
37529;SDS011;23374;52.758;6.872;2023-02-04T09:30:22;7.93;;;1.60;;
37529;SDS011;23374;52.758;6.872;2023-02-04T09:32:42;2.50;;;0.70;;
37529;SDS011;23374;52.758;6.872;2023-02-04T09:35:03;4.90;;;1.20;;
37529;SDS011;23374;52.758;6.872;2023-02-04T09:37:23;7.10;;;1.30;;
37529;SDS011;23374;52.758;6.872;2023-02-04T09:39:45;3.30;;;0.90;;
37529;SDS011;23374;52.758;6.872;2023-02-04T09:42:05;5.93;;;1.30;;
37529;SDS011;23374;52.758;6.872;2023-02-04T09:44:27;3.70;;;1.23;;
37529;SDS011;23374;52.758;6.872;2023-02-04T09:46:49;3.93;;;1.00;;
37529;SDS011;23374;52.758;6.872;2023-02-04T09:49:15;4.30;;;1.40;;
37529;SDS011;23374;52.758;6.872;2023-02-04T09:51:36;6.20;;;1.50;;
37529;SDS011;23374;52.758;6.872;2023-02-04T09:54:08;2.03;;;1.07;;
37529;SDS011;23374;52.758;6.872;2023-02-04T09:56:32;3.03;;;0.70;;
37529;SDS011;23374;52.758;6.872;2023-02-04T09:58:53;2.57;;;1.60;;
37529;SDS011;23374;52.758;6.872;2023-02-04T10:01:15;1.53;;;0.90;;
37529;SDS011;23374;52.758;6.872;2023-02-04T10:03:39;1.10;;;0.90;;
37529;SDS011;23374;52.758;6.872;2023-02-04T10:06:07;3.93;;;1.37;;
37529;SDS011;23374;52.758;6.872;2023-02-04T10:08:28;2.33;;;1.00;;
37529;SDS011;23374;52.758;6.872;2023-02-04T10:10:51;3.23;;;1.20;;
37529;SDS011;23374;52.758;6.872;2023-02-04T10:13:15;3.70;;;1.33;;
37529;SDS011;23374;52.758;6.872;2023-02-04T10:15:43;4.77;;;1.33;;
37529;SDS011;23374;52.758;6.872;2023-02-04T10:18:05;2.30;;;1.20;;
37529;SDS011;23374;52.758;6.872;2023-02-04T10:20:26;4.90;;;1.27;;
37529;SDS011;23374;52.758;6.872;2023-02-04T10:22:48;5.80;;;1.60;;
37529;SDS011;23374;52.758;6.872;2023-02-04T10:25:15;5.57;;;1.57;;
37529;SDS011;23374;52.758;6.872;2023-02-04T10:27:57;7.67;;;1.90;;
37529;SDS011;23374;52.758;6.872;2023-02-04T10:30:21;6.37;;;1.17;;
37529;SDS011;23374;52.758;6.872;2023-02-04T10:32:46;2.87;;;1.00;;
37529;SDS011;23374;52.758;6.872;2023-02-04T10:35:12;4.53;;;1.10;;
37529;SDS011;23374;52.758;6.872;2023-02-04T10:37:34;3.17;;;1.33;;
37529;SDS011;23374;52.758;6.872;2023-02-04T10:39:54;3.03;;;1.00;;
37529;SDS011;23374;52.758;6.872;2023-02-04T10:42:26;3.80;;;1.47;;
37529;SDS011;23374;52.758;6.872;2023-02-04T10:44:48;10.43;;;1.27;;
37529;SDS011;23374;52.758;6.872;2023-02-04T10:47:25;3.30;;;1.10;;
37529;SDS011;23374;52.758;6.872;2023-02-04T10:50:03;3.73;;;1.30;;
37529;SDS011;23374;52.758;6.872;2023-02-04T10:52:38;3.20;;;1.10;;
37529;SDS011;23374;52.758;6.872;2023-02-04T10:55:02;3.47;;;1.37;;
37529;SDS011;23374;52.758;6.872;2023-02-04T10:57:28;1.47;;;0.90;;
37529;SDS011;23374;52.758;6.872;2023-02-04T10:59:51;2.27;;;0.90;;
37529;SDS011;23374;52.758;6.872;2023-02-04T11:03:47;2.80;;;0.90;;
37529;SDS011;23374;52.758;6.872;2023-02-04T11:06:22;1.60;;;1.20;;
37529;SDS011;23374;52.758;6.872;2023-02-04T11:08:43;3.13;;;0.90;;
37529;SDS011;23374;52.758;6.872;2023-02-04T11:11:25;3.17;;;1.20;;
37529;SDS011;23374;52.758;6.872;2023-02-04T11:14:04;1.60;;;0.83;;
37529;SDS011;23374;52.758;6.872;2023-02-04T11:16:46;2.53;;;1.10;;
37529;SDS011;23374;52.758;6.872;2023-02-04T11:19:11;2.70;;;0.93;;
37529;SDS011;23374;52.758;6.872;2023-02-04T11:21:43;4.10;;;0.87;;
37529;SDS011;23374;52.758;6.872;2023-02-04T11:24:38;2.17;;;1.00;;
37529;SDS011;23374;52.758;6.872;2023-02-04T11:27:06;3.63;;;1.27;;
37529;SDS011;23374;52.758;6.872;2023-02-04T11:29:48;1.07;;;0.77;;
37529;SDS011;23374;52.758;6.872;2023-02-04T11:32:35;4.23;;;1.20;;
37529;SDS011;23374;52.758;6.872;2023-02-04T11:35:20;4.93;;;1.50;;
37529;SDS011;23374;52.758;6.872;2023-02-04T11:37:42;2.40;;;1.07;;
37529;SDS011;23374;52.758;6.872;2023-02-04T11:40:27;2.93;;;1.23;;
37529;SDS011;23374;52.758;6.872;2023-02-04T11:42:55;4.73;;;1.30;;
37529;SDS011;23374;52.758;6.872;2023-02-04T11:45:32;4.00;;;1.17;;
37529;SDS011;23374;52.758;6.872;2023-02-04T11:47:56;6.03;;;1.30;;
37529;SDS011;23374;52.758;6.872;2023-02-04T11:50:28;3.77;;;1.43;;
37529;SDS011;23374;52.758;6.872;2023-02-04T11:52:53;4.37;;;1.37;;
37529;SDS011;23374;52.758;6.872;2023-02-04T11:55:13;3.67;;;1.27;;
37529;SDS011;23374;52.758;6.872;2023-02-04T11:57:41;4.53;;;1.20;;
37529;SDS011;23374;52.758;6.872;2023-02-04T12:00:03;5.70;;;1.00;;
37529;SDS011;23374;52.758;6.872;2023-02-04T12:02:24;3.27;;;1.13;;
37529;SDS011;23374;52.758;6.872;2023-02-04T12:05:08;2.73;;;1.00;;
37529;SDS011;23374;52.758;6.872;2023-02-04T12:07:36;5.93;;;1.30;;
37529;SDS011;23374;52.758;6.872;2023-02-04T12:09:57;2.37;;;1.00;;
37529;SDS011;23374;52.758;6.872;2023-02-04T12:12:29;5.07;;;1.20;;
37529;SDS011;23374;52.758;6.872;2023-02-04T12:15:08;1.37;;;1.13;;
37529;SDS011;23374;52.758;6.872;2023-02-04T12:17:34;4.00;;;1.23;;
37529;SDS011;23374;52.758;6.872;2023-02-04T12:19:54;3.57;;;1.13;;
37529;SDS011;23374;52.758;6.872;2023-02-04T12:22:14;3.60;;;1.00;;
37529;SDS011;23374;52.758;6.872;2023-02-04T12:24:35;1.67;;;0.90;;
37529;SDS011;23374;52.758;6.872;2023-02-04T12:26:56;3.53;;;1.03;;
37529;SDS011;23374;52.758;6.872;2023-02-04T12:29:16;2.80;;;0.80;;
37529;SDS011;23374;52.758;6.872;2023-02-04T12:31:36;4.50;;;1.00;;
37529;SDS011;23374;52.758;6.872;2023-02-04T12:33:57;2.90;;;0.70;;
37529;SDS011;23374;52.758;6.872;2023-02-04T12:36:18;2.50;;;0.90;;
37529;SDS011;23374;52.758;6.872;2023-02-04T12:38:38;6.37;;;1.03;;
37529;SDS011;23374;52.758;6.872;2023-02-04T12:40:59;3.10;;;0.87;;
37529;SDS011;23374;52.758;6.872;2023-02-04T12:43:19;3.63;;;1.10;;
37529;SDS011;23374;52.758;6.872;2023-02-04T12:45:40;7.07;;;1.30;;
37529;SDS011;23374;52.758;6.872;2023-02-04T12:48:04;1.97;;;0.80;;
37529;SDS011;23374;52.758;6.872;2023-02-04T12:50:25;2.03;;;0.90;;
37529;SDS011;23374;52.758;6.872;2023-02-04T12:52:45;3.27;;;1.03;;
37529;SDS011;23374;52.758;6.872;2023-02-04T12:55:07;2.63;;;1.17;;
37529;SDS011;23374;52.758;6.872;2023-02-04T12:57:27;1.43;;;0.90;;
37529;SDS011;23374;52.758;6.872;2023-02-04T12:59:48;4.83;;;1.10;;
37529;SDS011;23374;52.758;6.872;2023-02-04T13:02:08;2.63;;;0.63;;
37529;SDS011;23374;52.758;6.872;2023-02-04T13:04:29;4.20;;;0.83;;
37529;SDS011;23374;52.758;6.872;2023-02-04T13:06:49;2.93;;;0.80;;
37529;SDS011;23374;52.758;6.872;2023-02-04T13:09:09;1.27;;;0.70;;
37529;SDS011;23374;52.758;6.872;2023-02-04T13:11:29;1.07;;;0.67;;
37529;SDS011;23374;52.758;6.872;2023-02-04T13:13:50;1.63;;;0.80;;
37529;SDS011;23374;52.758;6.872;2023-02-04T13:16:10;3.43;;;0.70;;
37529;SDS011;23374;52.758;6.872;2023-02-04T13:18:31;2.90;;;0.90;;
37529;SDS011;23374;52.758;6.872;2023-02-04T13:20:52;3.83;;;1.00;;
37529;SDS011;23374;52.758;6.872;2023-02-04T13:23:12;3.10;;;0.93;;
37529;SDS011;23374;52.758;6.872;2023-02-04T13:25:33;4.17;;;1.23;;
37529;SDS011;23374;52.758;6.872;2023-02-04T13:27:53;3.77;;;1.13;;
37529;SDS011;23374;52.758;6.872;2023-02-04T13:30:13;1.93;;;1.23;;
37529;SDS011;23374;52.758;6.872;2023-02-04T13:32:34;4.67;;;1.10;;
37529;SDS011;23374;52.758;6.872;2023-02-04T13:34:55;3.30;;;1.00;;
37529;SDS011;23374;52.758;6.872;2023-02-04T13:37:15;2.47;;;1.10;;
37529;SDS011;23374;52.758;6.872;2023-02-04T13:39:36;3.30;;;1.10;;
37529;SDS011;23374;52.758;6.872;2023-02-04T13:41:56;2.27;;;1.13;;
37529;SDS011;23374;52.758;6.872;2023-02-04T13:44:16;3.73;;;1.20;;
37529;SDS011;23374;52.758;6.872;2023-02-04T13:46:36;2.63;;;1.20;;
37529;SDS011;23374;52.758;6.872;2023-02-04T13:48:57;3.80;;;1.30;;
37529;SDS011;23374;52.758;6.872;2023-02-04T13:51:17;3.60;;;1.17;;
37529;SDS011;23374;52.758;6.872;2023-02-04T13:53:39;1.67;;;1.20;;
37529;SDS011;23374;52.758;6.872;2023-02-04T13:55:59;1.93;;;1.20;;
37529;SDS011;23374;52.758;6.872;2023-02-04T13:58:20;3.07;;;1.17;;
37529;SDS011;23374;52.758;6.872;2023-02-04T14:00:40;3.23;;;1.63;;
37529;SDS011;23374;52.758;6.872;2023-02-04T14:03:00;3.57;;;1.07;;
37529;SDS011;23374;52.758;6.872;2023-02-04T14:05:20;2.50;;;1.33;;
37529;SDS011;23374;52.758;6.872;2023-02-04T14:07:41;2.60;;;1.37;;
37529;SDS011;23374;52.758;6.872;2023-02-04T14:10:01;3.13;;;1.10;;
37529;SDS011;23374;52.758;6.872;2023-02-04T14:12:22;1.87;;;1.20;;
37529;SDS011;23374;52.758;6.872;2023-02-04T14:14:43;2.87;;;1.20;;
37529;SDS011;23374;52.758;6.872;2023-02-04T14:17:03;4.00;;;1.23;;